createdAt,value
2023-05-01T00:00:43.284Z,1007.64
2023-05-01T00:01:43.206Z,1007.61
2023-05-01T00:02:43.296Z,1007.59
2023-05-01T00:03:43.431Z,1007.59
2023-05-01T00:04:43.236Z,1007.61
2023-05-01T00:05:43.218Z,1007.61
2023-05-01T00:06:43.249Z,1007.63
2023-05-01T00:07:43.156Z,1007.61
2023-05-01T00:08:43.147Z,1007.60
2023-05-01T00:09:43.302Z,1007.60
2023-05-01T00:10:43.147Z,1007.58
2023-05-01T00:11:43.154Z,1007.57
2023-05-01T00:12:43.083Z,1007.58
2023-05-01T00:13:43.095Z,1007.57
2023-05-01T00:14:43.122Z,1007.56
2023-05-01T00:15:43.202Z,1007.54
2023-05-01T00:16:43.219Z,1007.52
2023-05-01T00:17:43.118Z,1007.53
2023-05-01T00:18:43.053Z,1007.49
2023-05-01T00:19:43.078Z,1007.47
2023-05-01T00:20:43.025Z,1007.46
2023-05-01T00:21:43.075Z,1007.44
2023-05-01T00:22:42.981Z,1007.44
2023-05-01T00:23:43.031Z,1007.43
2023-05-01T00:24:43.253Z,1007.42
2023-05-01T00:25:42.980Z,1007.42
2023-05-01T00:26:42.970Z,1007.41
2023-05-01T00:27:42.981Z,1007.39
2023-05-01T00:28:42.965Z,1007.39
2023-05-01T00:29:42.915Z,1007.37
2023-05-01T00:30:42.915Z,1007.37
2023-05-01T00:31:43.003Z,1007.36
2023-05-01T00:32:42.899Z,1007.33
2023-05-01T00:33:42.899Z,1007.34
2023-05-01T00:34:43.059Z,1007.33
2023-05-01T00:35:42.885Z,1007.31
2023-05-01T00:36:42.879Z,1007.30
2023-05-01T00:37:42.882Z,1007.29
2023-05-01T00:38:42.842Z,1007.31
2023-05-01T00:39:42.830Z,1007.31
2023-05-01T00:40:42.827Z,1007.30
2023-05-01T00:41:42.908Z,1007.28
2023-05-01T00:42:42.817Z,1007.28
2023-05-01T00:43:42.811Z,1007.27
2023-05-01T00:44:42.801Z,1007.25
2023-05-01T00:45:42.898Z,1007.25
2023-05-01T00:46:42.741Z,1007.24
2023-05-01T00:47:42.842Z,1007.23
2023-05-01T00:48:42.730Z,1007.23
2023-05-01T00:49:42.732Z,1007.20
2023-05-01T00:50:42.733Z,1007.20
2023-05-01T00:51:42.704Z,1007.17
2023-05-01T00:52:42.707Z,1007.15
2023-05-01T00:53:42.678Z,1007.13
2023-05-01T00:54:42.689Z,1007.12
2023-05-01T00:55:42.665Z,1007.13
2023-05-01T00:56:42.638Z,1007.09
2023-05-01T00:57:42.678Z,1007.10
2023-05-01T00:58:42.645Z,1007.10
2023-05-01T00:59:42.653Z,1007.09
2023-05-01T01:00:42.898Z,1007.09
2023-05-01T01:01:42.712Z,1007.09
2023-05-01T01:02:42.694Z,1007.07
2023-05-01T01:03:42.602Z,1007.05
2023-05-01T01:04:42.719Z,1007.03
2023-05-01T01:05:42.581Z,1007.00
2023-05-01T01:06:42.743Z,1006.98
2023-05-01T01:07:42.706Z,1006.96
2023-05-01T01:08:42.561Z,1006.95
2023-05-01T01:09:42.521Z,1006.94
2023-05-01T01:10:42.556Z,1006.94
2023-05-01T01:11:42.493Z,1006.93
2023-05-01T01:12:42.484Z,1006.92
2023-05-01T01:13:42.502Z,1006.93
2023-05-01T01:14:42.486Z,1006.93
2023-05-01T01:15:42.516Z,1006.92
2023-05-01T01:16:42.483Z,1006.91
2023-05-01T01:17:42.496Z,1006.90
2023-05-01T01:18:42.466Z,1006.89
2023-05-01T01:19:42.454Z,1006.88
2023-05-01T01:20:42.441Z,1006.87
2023-05-01T01:21:42.432Z,1006.86
2023-05-01T01:22:42.427Z,1006.85
2023-05-01T01:23:42.653Z,1006.83
2023-05-01T01:24:42.375Z,1006.82
2023-05-01T01:25:42.384Z,1006.81
2023-05-01T01:26:42.358Z,1006.82
2023-05-01T01:27:42.337Z,1006.79
2023-05-01T01:28:42.382Z,1006.77
2023-05-01T01:29:42.320Z,1006.76
2023-05-01T01:30:42.391Z,1006.77
2023-05-01T01:31:42.371Z,1006.74
2023-05-01T01:32:42.423Z,1006.74
2023-05-01T01:33:42.332Z,1006.74
2023-05-01T01:34:42.266Z,1006.75
2023-05-01T01:35:42.266Z,1006.76
2023-05-01T01:36:42.248Z,1006.73
2023-05-01T01:37:42.231Z,1006.75
2023-05-01T01:38:42.267Z,1006.74
2023-05-01T01:39:42.201Z,1006.73
2023-05-01T01:40:42.230Z,1006.72
2023-05-01T01:41:42.222Z,1006.72
2023-05-01T01:42:42.198Z,1006.72
2023-05-01T01:43:42.189Z,1006.70
2023-05-01T01:44:42.157Z,1006.70
2023-05-01T01:45:42.203Z,1006.70
2023-05-01T01:46:42.304Z,1006.69
2023-05-01T01:47:42.294Z,1006.69
2023-05-01T01:48:42.134Z,1006.67
2023-05-01T01:49:42.132Z,1006.65
2023-05-01T01:50:42.143Z,1006.65
2023-05-01T01:51:42.146Z,1006.64
2023-05-01T01:52:42.118Z,1006.63
2023-05-01T01:53:42.066Z,1006.61
2023-05-01T01:54:42.086Z,1006.61
2023-05-01T01:55:42.130Z,1006.59
2023-05-01T01:56:42.108Z,1006.60
2023-05-01T01:57:42.082Z,1006.60
2023-05-01T01:58:42.028Z,1006.60
2023-05-01T01:59:42.034Z,1006.61
2023-05-01T02:00:42.031Z,1006.60
2023-05-01T02:01:42.040Z,1006.59
2023-05-01T02:02:42.147Z,1006.58
2023-05-01T02:03:41.988Z,1006.57
2023-05-01T02:04:41.999Z,1006.57
2023-05-01T02:05:42.061Z,1006.55
2023-05-01T02:06:41.989Z,1006.55
2023-05-01T02:07:42.023Z,1006.54
2023-05-01T02:08:41.952Z,1006.53
2023-05-01T02:09:41.921Z,1006.52
2023-05-01T02:10:41.913Z,1006.52
2023-05-01T02:11:41.887Z,1006.52
2023-05-01T02:12:41.880Z,1006.52
2023-05-01T02:13:41.906Z,1006.52
2023-05-01T02:14:41.934Z,1006.51
2023-05-01T02:15:41.939Z,1006.52
2023-05-01T02:16:42.012Z,1006.52
2023-05-01T02:17:41.911Z,1006.52
2023-05-01T02:18:41.865Z,1006.53
2023-05-01T02:19:41.885Z,1006.52
2023-05-01T02:20:41.810Z,1006.54
2023-05-01T02:21:41.810Z,1006.53
2023-05-01T02:22:41.787Z,1006.53
2023-05-01T02:23:41.780Z,1006.52
2023-05-01T02:24:41.785Z,1006.52
2023-05-01T02:25:41.774Z,1006.52
2023-05-01T02:26:41.779Z,1006.52
2023-05-01T02:27:41.739Z,1006.52
2023-05-01T02:28:41.732Z,1006.51
2023-05-01T02:29:41.758Z,1006.51
2023-05-01T02:30:41.819Z,1006.52
2023-05-01T02:31:41.761Z,1006.51
2023-05-01T02:32:41.711Z,1006.51
2023-05-01T02:33:42.497Z,1006.49
2023-05-01T02:34:41.675Z,1006.48
2023-05-01T02:35:41.713Z,1006.47
2023-05-01T02:36:41.665Z,1006.47
2023-05-01T02:37:41.668Z,1006.46
2023-05-01T02:38:41.616Z,1006.46
2023-05-01T02:39:41.611Z,1006.43
2023-05-01T02:40:41.643Z,1006.43
2023-05-01T02:41:41.598Z,1006.42
2023-05-01T02:42:41.628Z,1006.42
2023-05-01T02:43:41.702Z,1006.42
2023-05-01T02:44:41.600Z,1006.42
2023-05-01T02:45:41.668Z,1006.41
2023-05-01T02:46:41.606Z,1006.42
2023-05-01T02:47:41.553Z,1006.40
2023-05-01T02:48:41.573Z,1006.39
2023-05-01T02:49:41.536Z,1006.39
2023-05-01T02:50:41.535Z,1006.40
2023-05-01T02:51:41.525Z,1006.40
2023-05-01T02:52:41.473Z,1006.41
2023-05-01T02:53:41.498Z,1006.42
2023-05-01T02:54:41.479Z,1006.42
2023-05-01T02:55:41.463Z,1006.40
2023-05-01T02:56:41.524Z,1006.40
2023-05-01T02:57:41.454Z,1006.39
2023-05-01T02:58:41.442Z,1006.39
2023-05-01T02:59:41.411Z,1006.38
2023-05-01T03:00:41.418Z,1006.38
2023-05-01T03:01:41.534Z,1006.37
2023-05-01T03:02:41.430Z,1006.37
2023-05-01T03:03:41.481Z,1006.36
2023-05-01T03:04:41.418Z,1006.35
2023-05-01T03:05:41.356Z,1006.36
2023-05-01T03:06:41.568Z,1006.35
2023-05-01T03:07:41.330Z,1006.35
2023-05-01T03:08:41.338Z,1006.34
2023-05-01T03:09:41.367Z,1006.33
2023-05-01T03:10:41.314Z,1006.32
2023-05-01T03:11:41.295Z,1006.32
2023-05-01T03:12:41.313Z,1006.32
2023-05-01T03:13:41.292Z,1006.32
2023-05-01T03:14:41.331Z,1006.31
2023-05-01T03:15:41.365Z,1006.30
2023-05-01T03:16:41.321Z,1006.29
2023-05-01T03:17:41.469Z,1006.29
2023-05-01T03:18:41.234Z,1006.29
2023-05-01T03:19:41.241Z,1006.28
2023-05-01T03:20:41.244Z,1006.29
2023-05-01T03:21:41.168Z,1006.28
2023-05-01T03:22:41.187Z,1006.28
2023-05-01T03:23:41.272Z,1006.27
2023-05-01T03:24:41.173Z,1006.27
2023-05-01T03:25:41.200Z,1006.27
2023-05-01T03:26:41.137Z,1006.26
2023-05-01T03:27:41.140Z,1006.25
2023-05-01T03:28:41.108Z,1006.24
2023-05-01T03:29:41.126Z,1006.23
2023-05-01T03:30:41.135Z,1006.23
2023-05-01T03:31:41.170Z,1006.22
2023-05-01T03:32:41.075Z,1006.22
2023-05-01T03:33:41.048Z,1006.22
2023-05-01T03:34:41.017Z,1006.23
2023-05-01T03:35:41.120Z,1006.22
2023-05-01T03:36:41.056Z,1006.22
2023-05-01T03:37:41.081Z,1006.21
2023-05-01T03:38:41.014Z,1006.20
2023-05-01T03:39:41.038Z,1006.20
2023-05-01T03:40:40.967Z,1006.19
2023-05-01T03:41:40.956Z,1006.18
2023-05-01T03:42:40.951Z,1006.17
2023-05-01T03:43:40.906Z,1006.17
2023-05-01T03:44:40.959Z,1006.17
2023-05-01T03:45:43.231Z,1006.16
2023-05-01T03:46:41.539Z,1006.16
2023-05-01T03:47:40.892Z,1006.15
2023-05-01T03:48:40.867Z,1006.14
2023-05-01T03:49:40.954Z,1006.13
2023-05-01T03:50:40.840Z,1006.11
2023-05-01T03:51:40.929Z,1006.10
2023-05-01T03:52:40.854Z,1006.09
2023-05-01T03:53:40.833Z,1006.07
2023-05-01T03:54:40.824Z,1006.06
2023-05-01T03:55:40.801Z,1006.05
2023-05-01T03:56:40.854Z,1006.05
2023-05-01T03:57:40.789Z,1006.05
2023-05-01T03:58:40.755Z,1006.04
2023-05-01T03:59:40.818Z,1006.03
2023-05-01T04:00:40.806Z,1006.03
2023-05-01T04:01:40.814Z,1006.04
2023-05-01T04:02:40.805Z,1006.04
2023-05-01T04:03:40.847Z,1006.04
2023-05-01T04:04:40.938Z,1006.04
2023-05-01T04:05:40.769Z,1006.04
2023-05-01T04:06:40.842Z,1006.04
2023-05-01T04:07:40.730Z,1006.04
2023-05-01T04:08:40.684Z,1006.04
2023-05-01T04:09:40.693Z,1006.05
2023-05-01T04:10:40.690Z,1006.05
2023-05-01T04:11:40.641Z,1006.05
2023-05-01T04:12:40.675Z,1006.05
2023-05-01T04:13:40.621Z,1006.05
2023-05-01T04:14:40.605Z,1006.05
2023-05-01T04:15:40.682Z,1006.05
2023-05-01T04:16:40.760Z,1006.05
2023-05-01T04:17:40.642Z,1006.04
2023-05-01T04:18:40.625Z,1006.04
2023-05-01T04:19:40.540Z,1006.04
2023-05-01T04:20:40.568Z,1006.05
2023-05-01T04:21:40.538Z,1006.05
2023-05-01T04:22:40.553Z,1006.06
2023-05-01T04:23:40.518Z,1006.06
2023-05-01T04:24:40.528Z,1006.07
2023-05-01T04:25:40.563Z,1006.07
2023-05-01T04:26:40.504Z,1006.07
2023-05-01T04:27:40.658Z,1006.08
2023-05-01T04:28:40.485Z,1006.08
2023-05-01T04:29:40.461Z,1006.09
2023-05-01T04:30:40.487Z,1006.08
2023-05-01T04:31:40.546Z,1006.08
2023-05-01T04:32:40.450Z,1006.09
2023-05-01T04:33:40.495Z,1006.10
2023-05-01T04:34:40.414Z,1006.10
2023-05-01T04:35:40.393Z,1006.09
2023-05-01T04:36:40.501Z,1006.08
2023-05-01T04:37:40.368Z,1006.08
2023-05-01T04:38:40.448Z,1006.08
2023-05-01T04:39:40.361Z,1006.05
2023-05-01T04:40:40.495Z,1006.05
2023-05-01T04:41:40.368Z,1006.04
2023-05-01T04:42:40.344Z,1006.03
2023-05-01T04:43:40.336Z,1006.05
2023-05-01T04:44:40.355Z,1006.03
2023-05-01T04:45:40.357Z,1006.05
2023-05-01T04:46:40.340Z,1006.05
2023-05-01T04:47:40.297Z,1006.06
2023-05-01T04:48:40.252Z,1006.07
2023-05-01T04:49:40.506Z,1006.07
2023-05-01T04:50:40.235Z,1006.07
2023-05-01T04:51:40.226Z,1006.08
2023-05-01T04:52:40.296Z,1006.08
2023-05-01T04:53:40.241Z,1006.09
2023-05-01T04:54:40.220Z,1006.10
2023-05-01T04:55:40.216Z,1006.10
2023-05-01T04:56:40.178Z,1006.10
2023-05-01T04:57:40.184Z,1006.10
2023-05-01T04:58:40.154Z,1006.12
2023-05-01T04:59:40.174Z,1006.13
2023-05-01T05:00:40.155Z,1006.13
2023-05-01T05:01:40.217Z,1006.12
2023-05-01T05:02:40.226Z,1006.13
2023-05-01T05:03:40.212Z,1006.12
2023-05-01T05:04:40.132Z,1006.12
2023-05-01T05:05:40.133Z,1006.14
2023-05-01T05:06:40.127Z,1006.12
2023-05-01T05:07:40.127Z,1006.13
2023-05-01T05:08:40.093Z,1006.12
2023-05-01T05:09:40.054Z,1006.12
2023-05-01T05:10:40.075Z,1006.11
2023-05-01T05:11:40.041Z,1006.12
2023-05-01T05:12:40.061Z,1006.11
2023-05-01T05:13:40.004Z,1006.11
2023-05-01T05:14:40.002Z,1006.10
2023-05-01T05:15:40.011Z,1006.09
2023-05-01T05:16:40.079Z,1006.10
2023-05-01T05:17:39.999Z,1006.10
2023-05-01T05:18:39.960Z,1006.12
2023-05-01T05:19:39.933Z,1006.10
2023-05-01T05:20:39.917Z,1006.11
2023-05-01T05:21:39.979Z,1006.10
2023-05-01T05:22:39.937Z,1006.10
2023-05-01T05:23:39.910Z,1006.09
2023-05-01T05:24:39.923Z,1006.10
2023-05-01T05:25:39.900Z,1006.11
2023-05-01T05:26:39.941Z,1006.10
2023-05-01T05:27:39.862Z,1006.11
2023-05-01T05:28:39.888Z,1006.11
2023-05-01T05:29:39.845Z,1006.10
2023-05-01T05:30:39.856Z,1006.10
2023-05-01T05:31:39.869Z,1006.10
2023-05-01T05:32:39.843Z,1006.10
2023-05-01T05:33:39.813Z,1006.08
2023-05-01T05:34:39.822Z,1006.10
2023-05-01T05:35:39.789Z,1006.09
2023-05-01T05:36:39.822Z,1006.09
2023-05-01T05:37:39.824Z,1006.07
2023-05-01T05:38:39.795Z,1006.08
2023-05-01T05:39:39.803Z,1006.09
2023-05-01T05:40:39.763Z,1006.09
2023-05-01T05:41:39.743Z,1006.08
2023-05-01T05:42:39.716Z,1006.09
2023-05-01T05:43:40.779Z,1006.08
2023-05-01T05:44:39.704Z,1006.07
2023-05-01T05:45:39.736Z,1006.07
2023-05-01T05:46:39.710Z,1006.05
2023-05-01T05:47:39.730Z,1006.06
2023-05-01T05:48:39.689Z,1006.06
2023-05-01T05:49:39.734Z,1006.06
2023-05-01T05:50:39.659Z,1006.07
2023-05-01T05:51:39.672Z,1006.06
2023-05-01T05:52:39.617Z,1006.06
2023-05-01T05:53:39.617Z,1006.04
2023-05-01T05:54:39.604Z,1006.04
2023-05-01T05:55:39.656Z,1006.03
2023-05-01T05:56:39.588Z,1006.01
2023-05-01T05:57:39.584Z,1006.00
2023-05-01T05:58:39.621Z,1006.01
2023-05-01T05:59:39.568Z,1006.00
2023-05-01T06:00:39.534Z,1006.01
2023-05-01T06:01:39.539Z,1006.01
2023-05-01T06:02:39.682Z,1006.01
2023-05-01T06:03:39.728Z,1006.02
2023-05-01T06:04:39.559Z,1006.02
2023-05-01T06:05:39.596Z,1006.02
2023-05-01T06:06:39.536Z,1006.01
2023-05-01T06:07:39.493Z,1006.02
2023-05-01T06:08:39.500Z,1006.01
2023-05-01T06:09:39.630Z,1006.01
2023-05-01T06:10:39.441Z,1006.02
2023-05-01T06:11:39.450Z,1006.02
2023-05-01T06:12:44.677Z,1006.01
2023-05-01T06:13:39.440Z,1006.04
2023-05-01T06:14:39.553Z,1006.02
2023-05-01T06:15:39.463Z,1006.02
2023-05-01T06:16:39.416Z,1006.00
2023-05-01T06:17:39.432Z,1006.00
2023-05-01T06:18:39.363Z,1005.98
2023-05-01T06:19:39.353Z,1005.97
2023-05-01T06:20:39.342Z,1005.95
2023-05-01T06:21:39.330Z,1005.96
2023-05-01T06:22:39.410Z,1005.94
2023-05-01T06:23:39.346Z,1005.93
2023-05-01T06:24:39.299Z,1005.94
2023-05-01T06:25:39.312Z,1005.90
2023-05-01T06:26:39.347Z,1005.90
2023-05-01T06:27:39.358Z,1005.90
2023-05-01T06:28:39.425Z,1005.89
2023-05-01T06:29:39.226Z,1005.87
2023-05-01T06:30:39.358Z,1005.88
2023-05-01T06:31:39.360Z,1005.87
2023-05-01T06:32:39.264Z,1005.87
2023-05-01T06:33:39.370Z,1005.86
2023-05-01T06:34:39.220Z,1005.85
2023-05-01T06:35:39.260Z,1005.85
2023-05-01T06:36:39.351Z,1005.85
2023-05-01T06:37:39.195Z,1005.84
2023-05-01T06:38:39.300Z,1005.84
2023-05-01T06:39:39.163Z,1005.82
2023-05-01T06:40:39.123Z,1005.80
2023-05-01T06:41:39.173Z,1005.79
2023-05-01T06:42:39.186Z,1005.79
2023-05-01T06:43:39.137Z,1005.78
2023-05-01T06:44:39.086Z,1005.78
2023-05-01T06:45:39.088Z,1005.78
2023-05-01T06:46:39.202Z,1005.76
2023-05-01T06:47:39.147Z,1005.78
2023-05-01T06:48:39.113Z,1005.77
2023-05-01T06:49:39.047Z,1005.76
2023-05-01T06:50:39.036Z,1005.74
2023-05-01T06:51:39.035Z,1005.75
2023-05-01T06:52:39.081Z,1005.72
2023-05-01T06:53:38.990Z,1005.74
2023-05-01T06:54:39.008Z,1005.75
2023-05-01T06:55:38.969Z,1005.77
2023-05-01T06:56:38.981Z,1005.75
2023-05-01T06:57:39.072Z,1005.76
2023-05-01T06:58:38.976Z,1005.76
2023-05-01T06:59:38.931Z,1005.77
2023-05-01T07:00:39.031Z,1005.75
2023-05-01T07:01:38.936Z,1005.74
2023-05-01T07:02:39.082Z,1005.74
2023-05-01T07:03:39.062Z,1005.74
2023-05-01T07:04:38.909Z,1005.74
2023-05-01T07:05:38.886Z,1005.74
2023-05-01T07:06:38.905Z,1005.75
2023-05-01T07:07:42.243Z,1005.74
2023-05-01T07:08:38.901Z,1005.76
2023-05-01T07:09:38.874Z,1005.73
2023-05-01T07:10:41.776Z,1005.72
2023-05-01T07:11:38.852Z,1005.73
2023-05-01T07:12:39.471Z,1005.74
2023-05-01T07:13:38.855Z,1005.75
2023-05-01T07:14:38.792Z,1005.74
2023-05-01T07:15:38.774Z,1005.75
2023-05-01T07:16:38.888Z,1005.76
2023-05-01T07:17:38.854Z,1005.74
2023-05-01T07:18:38.768Z,1005.74
2023-05-01T07:19:38.896Z,1005.71
2023-05-01T07:20:38.781Z,1005.72
2023-05-01T07:21:38.785Z,1005.72
2023-05-01T07:22:38.739Z,1005.70
2023-05-01T07:23:38.778Z,1005.70
2023-05-01T07:24:38.771Z,1005.72
2023-05-01T07:25:38.688Z,1005.71
2023-05-01T07:26:38.682Z,1005.72
2023-05-01T07:27:38.683Z,1005.71
2023-05-01T07:28:38.716Z,1005.69
2023-05-01T07:29:38.752Z,1005.71
2023-05-01T07:30:38.649Z,1005.70
2023-05-01T07:31:38.640Z,1005.71
2023-05-01T07:32:38.649Z,1005.70
2023-05-01T07:33:38.757Z,1005.69
2023-05-01T07:34:38.660Z,1005.68
2023-05-01T07:35:38.588Z,1005.67
2023-05-01T07:36:38.724Z,1005.67
2023-05-01T07:37:38.652Z,1005.66
2023-05-01T07:38:38.576Z,1005.67
2023-05-01T07:39:38.569Z,1005.67
2023-05-01T07:40:38.640Z,1005.67
2023-05-01T07:41:38.537Z,1005.68
2023-05-01T07:42:38.548Z,1005.68
2023-05-01T07:43:38.550Z,1005.68
2023-05-01T07:44:38.543Z,1005.69
2023-05-01T07:45:38.533Z,1005.68
2023-05-01T07:46:38.780Z,1005.69
2023-05-01T07:47:38.520Z,1005.67
2023-05-01T07:48:39.110Z,1005.65
2023-05-01T07:49:38.479Z,1005.67
2023-05-01T07:50:38.547Z,1005.68
2023-05-01T07:51:38.471Z,1005.67
2023-05-01T07:52:38.427Z,1005.68
2023-05-01T07:53:38.456Z,1005.69
2023-05-01T07:54:38.380Z,1005.71
2023-05-01T07:55:38.457Z,1005.70
2023-05-01T07:56:38.414Z,1005.69
2023-05-01T07:57:38.397Z,1005.67
2023-05-01T07:58:38.394Z,1005.68
2023-05-01T07:59:38.365Z,1005.67
2023-05-01T08:00:38.415Z,1005.66
2023-05-01T08:01:38.348Z,1005.67
2023-05-01T08:02:38.354Z,1005.66
2023-05-01T08:03:38.581Z,1005.65
2023-05-01T08:04:38.373Z,1005.62
2023-05-01T08:05:38.322Z,1005.61
2023-05-01T08:06:38.459Z,1005.63
2023-05-01T08:07:38.273Z,1005.62
2023-05-01T08:08:38.331Z,1005.61
2023-05-01T08:09:38.252Z,1005.62
2023-05-01T08:10:38.337Z,1005.63
2023-05-01T08:11:38.222Z,1005.66
2023-05-01T08:12:38.250Z,1005.66
2023-05-01T08:13:38.213Z,1005.66
2023-05-01T08:14:38.256Z,1005.66
2023-05-01T08:15:38.246Z,1005.66
2023-05-01T08:16:38.245Z,1005.66
2023-05-01T08:17:38.253Z,1005.67
2023-05-01T08:18:38.204Z,1005.66
2023-05-01T08:19:38.147Z,1005.64
2023-05-01T08:20:38.225Z,1005.62
2023-05-01T08:21:38.152Z,1005.61
2023-05-01T08:22:38.163Z,1005.59
2023-05-01T08:23:38.148Z,1005.56
2023-05-01T08:24:38.146Z,1005.55
2023-05-01T08:25:38.282Z,1005.54
2023-05-01T08:26:38.100Z,1005.54
2023-05-01T08:27:38.087Z,1005.55
2023-05-01T08:28:38.084Z,1005.55
2023-05-01T08:29:38.039Z,1005.54
2023-05-01T08:30:38.064Z,1005.53
2023-05-01T08:31:38.310Z,1005.51
2023-05-01T08:32:38.063Z,1005.50
2023-05-01T08:33:38.124Z,1005.50
2023-05-01T08:34:37.998Z,1005.50
2023-05-01T08:35:38.072Z,1005.51
2023-05-01T08:36:38.057Z,1005.52
2023-05-01T08:37:38.022Z,1005.53
2023-05-01T08:38:38.046Z,1005.54
2023-05-01T08:39:37.960Z,1005.56
2023-05-01T08:40:38.103Z,1005.58
2023-05-01T08:41:38.068Z,1005.57
2023-05-01T08:42:38.011Z,1005.57
2023-05-01T08:43:37.950Z,1005.55
2023-05-01T08:44:37.973Z,1005.54
2023-05-01T08:45:38.160Z,1005.53
2023-05-01T08:46:37.915Z,1005.52
2023-05-01T08:47:37.914Z,1005.50
2023-05-01T08:48:37.923Z,1005.50
2023-05-01T08:49:37.850Z,1005.49
2023-05-01T08:50:37.926Z,1005.48
2023-05-01T08:51:37.842Z,1005.47
2023-05-01T08:52:37.844Z,1005.47
2023-05-01T08:53:37.842Z,1005.47
2023-05-01T08:54:37.902Z,1005.46
2023-05-01T08:55:37.818Z,1005.46
2023-05-01T08:56:37.821Z,1005.46
2023-05-01T08:57:37.869Z,1005.45
2023-05-01T08:58:37.828Z,1005.44
2023-05-01T08:59:37.851Z,1005.44
2023-05-01T09:00:37.758Z,1005.42
2023-05-01T09:01:37.918Z,1005.41
2023-05-01T09:02:37.834Z,1005.41
2023-05-01T09:03:37.798Z,1005.42
2023-05-01T09:04:37.735Z,1005.41
2023-05-01T09:05:37.827Z,1005.42
2023-05-01T09:06:37.725Z,1005.42
2023-05-01T09:07:37.948Z,1005.43
2023-05-01T09:08:37.696Z,1005.42
2023-05-01T09:09:37.701Z,1005.42
2023-05-01T09:10:37.680Z,1005.41
2023-05-01T09:11:37.642Z,1005.40
2023-05-01T09:12:37.618Z,1005.41
2023-05-01T09:13:37.698Z,1005.41
2023-05-01T09:14:37.632Z,1005.41
2023-05-01T09:15:37.653Z,1005.40
2023-05-01T09:16:37.654Z,1005.40
2023-05-01T09:17:37.664Z,1005.40
2023-05-01T09:18:37.628Z,1005.40
2023-05-01T09:19:37.598Z,1005.41
2023-05-01T09:20:37.544Z,1005.41
2023-05-01T09:21:37.591Z,1005.41
2023-05-01T09:22:37.554Z,1005.38
2023-05-01T09:23:37.508Z,1005.36
2023-05-01T09:24:37.530Z,1005.34
2023-05-01T09:25:37.500Z,1005.35
2023-05-01T09:26:37.521Z,1005.34
2023-05-01T09:27:37.590Z,1005.33
2023-05-01T09:28:37.494Z,1005.35
2023-05-01T09:29:37.529Z,1005.35
2023-05-01T09:30:37.478Z,1005.37
2023-05-01T09:31:37.480Z,1005.37
2023-05-01T09:32:37.511Z,1005.37
2023-05-01T09:33:37.397Z,1005.37
2023-05-01T09:34:37.387Z,1005.38
2023-05-01T09:35:37.604Z,1005.39
2023-05-01T09:36:37.382Z,1005.37
2023-05-01T09:37:37.432Z,1005.35
2023-05-01T09:38:37.381Z,1005.33
2023-05-01T09:39:37.507Z,1005.33
2023-05-01T09:40:37.413Z,1005.30
2023-05-01T09:41:37.318Z,1005.28
2023-05-01T09:42:37.434Z,1005.27
2023-05-01T09:43:37.415Z,1005.24
2023-05-01T09:44:37.291Z,1005.23
2023-05-01T09:45:37.544Z,1005.24
2023-05-01T09:46:37.344Z,1005.24
2023-05-01T09:47:37.327Z,1005.25
2023-05-01T09:48:37.273Z,1005.25
2023-05-01T09:49:37.284Z,1005.28
2023-05-01T09:50:37.298Z,1005.28
2023-05-01T09:51:37.195Z,1005.29
2023-05-01T09:52:37.196Z,1005.29
2023-05-01T09:53:37.210Z,1005.29
2023-05-01T09:54:37.224Z,1005.30
2023-05-01T09:55:37.225Z,1005.28
2023-05-01T09:56:37.258Z,1005.29
2023-05-01T09:57:37.171Z,1005.27
2023-05-01T09:58:37.149Z,1005.27
2023-05-01T09:59:37.220Z,1005.26
2023-05-01T10:00:37.156Z,1005.24
2023-05-01T10:01:37.235Z,1005.23
2023-05-01T10:02:37.210Z,1005.22
2023-05-01T10:03:37.152Z,1005.22
2023-05-01T10:04:37.098Z,1005.21
2023-05-01T10:05:37.103Z,1005.20
2023-05-01T10:06:37.251Z,1005.20
2023-05-01T10:07:37.086Z,1005.20
2023-05-01T10:08:37.100Z,1005.19
2023-05-01T10:09:37.074Z,1005.18
2023-05-01T10:10:37.081Z,1005.19
2023-05-01T10:11:37.097Z,1005.19
2023-05-01T10:12:37.053Z,1005.18
2023-05-01T10:13:37.006Z,1005.18
2023-05-01T10:14:36.986Z,1005.18
2023-05-01T10:15:37.015Z,1005.15
2023-05-01T10:16:37.073Z,1005.15
2023-05-01T10:17:37.103Z,1005.14
2023-05-01T10:18:37.012Z,1005.15
2023-05-01T10:19:36.959Z,1005.12
2023-05-01T10:20:36.959Z,1005.10
2023-05-01T10:21:36.978Z,1005.12
2023-05-01T10:22:36.931Z,1005.12
2023-05-01T10:23:36.907Z,1005.14
2023-05-01T10:24:36.906Z,1005.12
2023-05-01T10:25:36.865Z,1005.15
2023-05-01T10:26:36.854Z,1005.15
2023-05-01T10:27:36.856Z,1005.13
2023-05-01T10:28:36.834Z,1005.15
2023-05-01T10:29:36.875Z,1005.14
2023-05-01T10:30:37.034Z,1005.16
2023-05-01T10:31:36.861Z,1005.12
2023-05-01T10:32:36.878Z,1005.13
2023-05-01T10:33:36.776Z,1005.11
2023-05-01T10:34:36.799Z,1005.10
2023-05-01T10:35:36.783Z,1005.12
2023-05-01T10:36:36.761Z,1005.13
2023-05-01T10:37:36.756Z,1005.11
2023-05-01T10:38:36.746Z,1005.11
2023-05-01T10:39:36.866Z,1005.11
2023-05-01T10:40:37.118Z,1005.09
2023-05-01T10:41:36.781Z,1005.07
2023-05-01T10:42:36.723Z,1005.07
2023-05-01T10:43:36.867Z,1005.06
2023-05-01T10:44:36.713Z,1005.08
2023-05-01T10:45:36.766Z,1005.05
2023-05-01T10:46:36.687Z,1005.03
2023-05-01T10:47:36.707Z,1005.02
2023-05-01T10:48:36.741Z,1005.00
2023-05-01T10:49:36.736Z,1004.98
2023-05-01T10:50:36.678Z,1004.98
2023-05-01T10:51:36.681Z,1004.97
2023-05-01T10:52:36.894Z,1004.96
2023-05-01T10:53:36.657Z,1004.96
2023-05-01T10:54:36.567Z,1004.93
2023-05-01T10:55:36.809Z,1004.93
2023-05-01T10:56:36.561Z,1004.93
2023-05-01T10:57:36.624Z,1004.91
2023-05-01T10:58:36.569Z,1004.90
2023-05-01T10:59:36.578Z,1004.89
2023-05-01T11:00:36.512Z,1004.89
2023-05-01T11:01:36.570Z,1004.90
2023-05-01T11:02:36.625Z,1004.89
2023-05-01T11:03:36.621Z,1004.88
2023-05-01T11:04:36.526Z,1004.89
2023-05-01T11:05:38.698Z,1004.91
2023-05-01T11:06:36.695Z,1004.90
2023-05-01T11:07:36.490Z,1004.92
2023-05-01T11:08:36.462Z,1004.92
2023-05-01T11:09:36.483Z,1004.90
2023-05-01T11:10:36.395Z,1004.90
2023-05-01T11:11:36.439Z,1004.88
2023-05-01T11:12:36.415Z,1004.87
2023-05-01T11:13:36.657Z,1004.86
2023-05-01T11:14:36.417Z,1004.84
2023-05-01T11:15:36.492Z,1004.84
2023-05-01T11:16:36.545Z,1004.81
2023-05-01T11:17:36.519Z,1004.82
2023-05-01T11:18:36.385Z,1004.82
2023-05-01T11:19:36.408Z,1004.82
2023-05-01T11:20:36.463Z,1004.81
2023-05-01T11:21:36.299Z,1004.82
2023-05-01T11:22:36.341Z,1004.81
2023-05-01T11:23:36.276Z,1004.80
2023-05-01T11:24:36.284Z,1004.82
2023-05-01T11:25:36.439Z,1004.80
2023-05-01T11:26:36.232Z,1004.76
2023-05-01T11:27:36.354Z,1004.77
2023-05-01T11:28:36.228Z,1004.76
2023-05-01T11:29:36.213Z,1004.75
2023-05-01T11:30:36.231Z,1004.73
2023-05-01T11:31:36.217Z,1004.73
2023-05-01T11:32:36.218Z,1004.71
2023-05-01T11:33:36.313Z,1004.72
2023-05-01T11:34:36.170Z,1004.71
2023-05-01T11:35:36.146Z,1004.68
2023-05-01T11:36:36.165Z,1004.67
2023-05-01T11:37:36.158Z,1004.64
2023-05-01T11:38:36.175Z,1004.63
2023-05-01T11:39:36.120Z,1004.61
2023-05-01T11:40:37.110Z,1004.61
2023-05-01T11:41:36.148Z,1004.63
2023-05-01T11:42:36.143Z,1004.62
2023-05-01T11:43:36.058Z,1004.63
2023-05-01T11:44:36.058Z,1004.60
2023-05-01T11:45:36.197Z,1004.60
2023-05-01T11:46:36.243Z,1004.57
2023-05-01T11:47:36.094Z,1004.56
2023-05-01T11:48:36.127Z,1004.55
2023-05-01T11:49:36.029Z,1004.55
2023-05-01T11:50:36.193Z,1004.54
2023-05-01T11:51:36.026Z,1004.53
2023-05-01T11:52:36.013Z,1004.55
2023-05-01T11:53:36.131Z,1004.54
2023-05-01T11:54:35.973Z,1004.55
2023-05-01T11:55:35.970Z,1004.57
2023-05-01T11:56:36.074Z,1004.54
2023-05-01T11:57:36.025Z,1004.53
2023-05-01T11:58:35.958Z,1004.51
2023-05-01T11:59:35.957Z,1004.52
2023-05-01T12:00:35.992Z,1004.52
2023-05-01T12:01:36.013Z,1004.53
2023-05-01T12:02:35.949Z,1004.53
2023-05-01T12:03:35.962Z,1004.54
2023-05-01T12:04:35.929Z,1004.51
2023-05-01T12:05:35.883Z,1004.51